Aviation Digital Data Service (ADDS)

Output produced by METARs form (1055 UTC 19 February 2019)
found at http://www.aviationweather.gov/metar/data/
 
METAR text: RJOA 191000Z 30006KT 6000 FEW001 SCT007 BKN020 11/10 Q1013
Conditions at: RJOA (NEW HIROSHIMA , JP) observed 1000 UTC 19 February 2019
Temperature: 11.0°C (52°F)
Dewpoint: 10.0°C (50°F) [RH = 94%]
Pressure (altimeter): 29.91 inches Hg (1013.0 mb)
Winds: from the WNW (300 degrees) at 7 MPH (6 knots; 3.1 m/s)
Visibility: 4 miles ( 6 km)
Ceiling: 2000 feet AGL
Clouds: few clouds at 100 feet AGL
scattered clouds at 700 feet AGL
broken clouds at 2000 feet AGL
Weather: no significant weather observed at this time

METAR text: RJOA 190900Z 31007KT 5000 BCFG BR FEW000 SCT003 BKN007 11/10 Q1012
Conditions at: RJOA (NEW HIROSHIMA , JP) observed 0900 UTC 19 February 2019
Temperature: 11.0°C (52°F)
Dewpoint: 10.0°C (50°F) [RH = 94%]
Pressure (altimeter): 29.88 inches Hg (1012.0 mb)
Winds: from the NW (310 degrees) at 8 MPH (7 knots; 3.6 m/s)
Visibility: 3 miles ( 5 km)
Ceiling: 700 feet AGL
Clouds: few clouds at 0 feet AGL
scattered clouds at 300 feet AGL
broken clouds at 700 feet AGL
Weather: BCFG BR  (patches of fog, mist)

METAR text: RJOA 190819Z 31006KT 4000 R10/0900VP1800U BCFG BR FEW000 BKN007 BKN015 10/09 Q1012 RMK 1ST000 5ST007 6CU015 A2990 2000W FG SE AND SW-W
Conditions at: RJOA (NEW HIROSHIMA , JP) observed 0819 UTC 19 February 2019
Temperature: 10.0°C (50°F)
Dewpoint: 9.0°C (48°F) [RH = 93%]
Pressure (altimeter): 29.88 inches Hg (1012.0 mb)
Winds: from the NW (310 degrees) at 7 MPH (6 knots; 3.1 m/s)
Visibility: 2.49 miles (4.01 km)
Ceiling: 700 feet AGL
Clouds: few clouds at 0 feet AGL
broken clouds at 700 feet AGL
broken clouds at 1500 feet AGL
Weather: BCFG BR  (patches of fog, mist)

METAR text: RJOA 190816Z 31006KT 4000 R10/0900VP1800U BCFG BR FEW000 BKN007 BKN015 10/08 Q1012 RMK 1ST000 5ST007 6CU015 A2990 2000W FG SE AND SW-W
Conditions at: RJOA (NEW HIROSHIMA , JP) observed 0816 UTC 19 February 2019
Temperature: 10.0°C (50°F)
Dewpoint: 8.0°C (46°F) [RH = 87%]
Pressure (altimeter): 29.88 inches Hg (1012.0 mb)
Winds: from the NW (310 degrees) at 7 MPH (6 knots; 3.1 m/s)
Visibility: 2.49 miles (4.01 km)
Ceiling: 700 feet AGL
Clouds: few clouds at 0 feet AGL
broken clouds at 700 feet AGL
broken clouds at 1500 feet AGL
Weather: BCFG BR  (patches of fog, mist)

METAR text: RJOA 190809Z 31005KT 230V340 3500 R10/0600V1800U BCFG BR FEW000 BKN006 BKN015 09/08 Q1012 RMK 1ST000 5ST006 6CU015 A2990 1500W FG SE AND SW-W
Conditions at: RJOA (NEW HIROSHIMA , JP) observed 0809 UTC 19 February 2019
Temperature: 9.0°C (48°F)
Dewpoint: 8.0°C (46°F) [RH = 93%]
Pressure (altimeter): 29.88 inches Hg (1012.0 mb)
Winds: from the NW (310 degrees) at 6 MPH (5 knots; 2.6 m/s)
Visibility: 2.17 miles (3.49 km)
Ceiling: 600 feet AGL
Clouds: few clouds at 0 feet AGL
broken clouds at 600 feet AGL
broken clouds at 1500 feet AGL
Weather: BCFG BR  (patches of fog, mist)

METAR text: RJOA 190800Z 31006KT 2500 R10/0500V0800N BCFG BR FEW000 BKN005 BKN015 09/08 Q1012
Conditions at: RJOA (NEW HIROSHIMA , JP) observed 0800 UTC 19 February 2019
Temperature: 9.0°C (48°F)
Dewpoint: 8.0°C (46°F) [RH = 93%]
Pressure (altimeter): 29.88 inches Hg (1012.0 mb)
Winds: from the NW (310 degrees) at 7 MPH (6 knots; 3.1 m/s)
Visibility: 1.55 miles (2.49 km)
Ceiling: 500 feet AGL
Clouds: few clouds at 0 feet AGL
broken clouds at 500 feet AGL
broken clouds at 1500 feet AGL
Weather: BCFG BR  (patches of fog, mist)

METAR text: RJOA 190733Z 28003KT 240V330 1800 R10/0300V1200N -SHRA BCFG BR FEW000 BKN007 BKN015 09/08 Q1011 RMK 1ST000 5ST007 6CU015 A2988 FG ALL QUAD
Conditions at: RJOA (NEW HIROSHIMA , JP) observed 0733 UTC 19 February 2019
Temperature: 9.0°C (48°F)
Dewpoint: 8.0°C (46°F) [RH = 93%]
Pressure (altimeter): 29.85 inches Hg (1011.0 mb)
Winds: from the W (280 degrees) at 3 MPH (3 knots; 1.5 m/s)
Visibility: 1.12 miles (1.80 km)
Ceiling: 700 feet AGL
Clouds: few clouds at 0 feet AGL
broken clouds at 700 feet AGL
broken clouds at 1500 feet AGL
Weather: -SHRA BCFG BR  (light rain showers, patches of fog, mist)

METAR text: RJOA 190729Z 27003KT 240V320 2000 R10/0300V1600D -SHRA BCFG BR FEW000 BKN007 BKN015 09/08 Q1011 RMK 1ST000 5ST007 6CU015 A2988 FG ALL QUAD
Conditions at: RJOA (NEW HIROSHIMA , JP) observed 0729 UTC 19 February 2019
Temperature: 9.0°C (48°F)
Dewpoint: 8.0°C (46°F) [RH = 93%]
Pressure (altimeter): 29.85 inches Hg (1011.0 mb)
Winds: from the W (270 degrees) at 3 MPH (3 knots; 1.5 m/s)
Visibility: 1.24 miles (2.00 km)
Ceiling: 700 feet AGL
Clouds: few clouds at 0 feet AGL
broken clouds at 700 feet AGL
broken clouds at 1500 feet AGL
Weather: BCFG -SHRA BR  (patches of fog, light rain showers, mist)

METAR text: RJOA 190719Z 30003KT 270V360 2000 R10/0400VP1800D -SHRA BCFG BR FEW000 BKN007 BKN015 09/08 Q1012 RMK 1ST000 5ST007 6CU015 A2988 FG ALL QUAD
Conditions at: RJOA (NEW HIROSHIMA , JP) observed 0719 UTC 19 February 2019
Temperature: 9.0°C (48°F)
Dewpoint: 8.0°C (46°F) [RH = 93%]
Pressure (altimeter): 29.88 inches Hg (1012.0 mb)
Winds: from the WNW (300 degrees) at 3 MPH (3 knots; 1.5 m/s)
Visibility: 1.24 miles (2.00 km)
Ceiling: 700 feet AGL
Clouds: few clouds at 0 feet AGL
broken clouds at 700 feet AGL
broken clouds at 1500 feet AGL
Weather: BCFG -SHRA BR  (patches of fog, light rain showers, mist)

METAR text: RJOA 190714Z 28004KT 230V360 2000 R10/0400VP1800D -SHRA BCFG BR FEW000 BKN008 BKN015 10/09 Q1012 RMK 1ST000 5ST008 6CU015 A2989 FG ALL QUAD
Conditions at: RJOA (NEW HIROSHIMA , JP) observed 0714 UTC 19 February 2019
Temperature: 10.0°C (50°F)
Dewpoint: 9.0°C (48°F) [RH = 93%]
Pressure (altimeter): 29.88 inches Hg (1012.0 mb)
Winds: from the W (280 degrees) at 5 MPH (4 knots; 2.1 m/s)
Visibility: 1.24 miles (2.00 km)
Ceiling: 800 feet AGL
Clouds: few clouds at 0 feet AGL
broken clouds at 800 feet AGL
broken clouds at 1500 feet AGL
Weather: BCFG -SHRA BR  (patches of fog, light rain showers, mist)

METAR text: RJOA 190700Z VRB02KT 2500 BCFG BR FEW000 SCT010 BKN015 10/09 Q1011
Conditions at: RJOA (NEW HIROSHIMA , JP) observed 0700 UTC 19 February 2019
Temperature: 10.0°C (50°F)
Dewpoint: 9.0°C (48°F) [RH = 93%]
Pressure (altimeter): 29.85 inches Hg (1011.0 mb)
Winds: variable direction winds at 2 MPH (2 knots; 1.0 m/s)
Visibility: 1.55 miles (2.49 km)
Ceiling: 1500 feet AGL
Clouds: few clouds at 0 feet AGL
scattered clouds at 1000 feet AGL
broken clouds at 1500 feet AGL
Weather: BCFG BR  (patches of fog, mist)

METAR text: RJOA 190625Z VRB02KT 2500 BCFG BR FEW000 SCT005 BKN020 09/08 Q1011 RMK 1ST000 3ST005 6CU020 A2988 FG ALL QUAD
Conditions at: RJOA (NEW HIROSHIMA , JP) observed 0625 UTC 19 February 2019
Temperature: 9.0°C (48°F)
Dewpoint: 8.0°C (46°F) [RH = 93%]
Pressure (altimeter): 29.85 inches Hg (1011.0 mb)
Winds: variable direction winds at 2 MPH (2 knots; 1.0 m/s)
Visibility: 1.55 miles (2.49 km)
Ceiling: 2000 feet AGL
Clouds: few clouds at 0 feet AGL
scattered clouds at 500 feet AGL
broken clouds at 2000 feet AGL
Weather: BCFG BR  (patches of fog, mist)

METAR text: RJOA 190608Z 30003KT 250V330 2000 -SHRA BCFG BR FEW000 SCT005 BKN015 08/07 Q1012 RMK 1ST000 3ST005 6CU015 A2989 FG ALL QUAD
Conditions at: RJOA (NEW HIROSHIMA , JP) observed 0608 UTC 19 February 2019
Temperature: 8.0°C (46°F)
Dewpoint: 7.0°C (45°F) [RH = 93%]
Pressure (altimeter): 29.88 inches Hg (1012.0 mb)
Winds: from the WNW (300 degrees) at 3 MPH (3 knots; 1.5 m/s)
Visibility: 1.24 miles (2.00 km)
Ceiling: 1500 feet AGL
Clouds: few clouds at 0 feet AGL
scattered clouds at 500 feet AGL
broken clouds at 1500 feet AGL
Weather: -SHRA BCFG BR  (light rain showers, patches of fog, mist)

METAR text: RJOA 190605Z 31004KT 1800 R10/0900VP1800U -SHRA BCFG BR FEW000 SCT004 BKN015 08/07 Q1012 RMK 1ST000 4ST004 6CU015 A2989 FG ALL QUAD
Conditions at: RJOA (NEW HIROSHIMA , JP) observed 0605 UTC 19 February 2019
Temperature: 8.0°C (46°F)
Dewpoint: 7.0°C (45°F) [RH = 93%]
Pressure (altimeter): 29.88 inches Hg (1012.0 mb)
Winds: from the NW (310 degrees) at 5 MPH (4 knots; 2.1 m/s)
Visibility: 1.12 miles (1.80 km)
Ceiling: 1500 feet AGL
Clouds: few clouds at 0 feet AGL
scattered clouds at 400 feet AGL
broken clouds at 1500 feet AGL
Weather: BCFG -SHRA BR  (patches of fog, light rain showers, mist)

METAR text: RJOA 190600Z 30005KT 250V360 1600 R10/0400VP1800U -SHRA BCFG BR FEW000 SCT001 BKN004 08/07 Q1012
Conditions at: RJOA (NEW HIROSHIMA , JP) observed 0600 UTC 19 February 2019
Temperature: 8.0°C (46°F)
Dewpoint: 7.0°C (45°F) [RH = 93%]
Pressure (altimeter): 29.88 inches Hg (1012.0 mb)
Winds: from the WNW (300 degrees) at 6 MPH (5 knots; 2.6 m/s)
Visibility: 0.99 miles (1.59 km)
Ceiling: 400 feet AGL
Clouds: few clouds at 0 feet AGL
scattered clouds at 100 feet AGL
broken clouds at 400 feet AGL
Weather: BCFG -SHRA BR  (patches of fog, light rain showers, mist)

METAR text: RJOA 190548Z 30008G18KT 270V350 0500 R10/0350VP1800D -SHRA FG FEW000 SCT001 BKN003 08/07 Q1012 RMK 1ST000 3ST001 6ST003 A2989
Conditions at: RJOA (NEW HIROSHIMA , JP) observed 0548 UTC 19 February 2019
Temperature: 8.0°C (46°F)
Dewpoint: 7.0°C (45°F) [RH = 93%]
Pressure (altimeter): 29.88 inches Hg (1012.0 mb)
Winds: from the WNW (300 degrees) at 9 MPH (8 knots; 4.1 m/s)
gusting to 21 MPH (18 knots; 9.3 m/s)
Visibility: 0.31 miles (0.50 km)
Ceiling: 300 feet AGL
Clouds: few clouds at 0 feet AGL
scattered clouds at 100 feet AGL
broken clouds at 300 feet AGL
Weather: -SHRA FG  (light rain showers, fog)

METAR text: RJOA 190544Z 29008G18KT 1200 R10/0350VP1800D -SHRA BCFG BR FEW000 SCT002 BKN003 09/08 Q1012 RMK 1ST000 4ST002 6ST003 A2990 FG ALL QUAD
Conditions at: RJOA (NEW HIROSHIMA , JP) observed 0544 UTC 19 February 2019
Temperature: 9.0°C (48°F)
Dewpoint: 8.0°C (46°F) [RH = 93%]
Pressure (altimeter): 29.88 inches Hg (1012.0 mb)
Winds: from the WNW (290 degrees) at 9 MPH (8 knots; 4.1 m/s)
gusting to 21 MPH (18 knots; 9.3 m/s)
Visibility: 0.75 miles (1.21 km)
Ceiling: 300 feet AGL
Clouds: few clouds at 0 feet AGL
scattered clouds at 200 feet AGL
broken clouds at 300 feet AGL
Weather: BCFG -SHRA BR  (patches of fog, light rain showers, mist)

METAR text: RJOA 190521Z 07005KT 040V110 1600 R10/P1800N -SHRA BCFG BR FEW000 SCT001 BKN002 08/07 Q1011 RMK 1ST000 4ST001 6ST002 A2988 FG ALL QUAD
Conditions at: RJOA (NEW HIROSHIMA , JP) observed 0521 UTC 19 February 2019
Temperature: 8.0°C (46°F)
Dewpoint: 7.0°C (45°F) [RH = 93%]
Pressure (altimeter): 29.85 inches Hg (1011.0 mb)
Winds: from the ENE (70 degrees) at 6 MPH (5 knots; 2.6 m/s)
Visibility: 0.99 miles (1.59 km)
Ceiling: 200 feet AGL
Clouds: few clouds at 0 feet AGL
scattered clouds at 100 feet AGL
broken clouds at 200 feet AGL
Weather: -SHRA BCFG BR  (light rain showers, patches of fog, mist)

METAR text: RJOA 190507Z 09006KT 0900 R10/0750VP1800U -SHRA FG FEW000 BKN001 BKN002 08/07 Q1011 RMK 1ST000 5ST001 6ST002 A2988 P/FR
Conditions at: RJOA (NEW HIROSHIMA , JP) observed 0507 UTC 19 February 2019
Temperature: 8.0°C (46°F)
Dewpoint: 7.0°C (45°F) [RH = 93%]
Pressure (altimeter): 29.85 inches Hg (1011.0 mb)
Winds: from the E (90 degrees) at 7 MPH (6 knots; 3.1 m/s)
Visibility: 0.56 miles (0.90 km)
Ceiling: 100 feet AGL
Clouds: few clouds at 0 feet AGL
broken clouds at 100 feet AGL
broken clouds at 200 feet AGL
Weather: -SHRA FG  (light rain showers, fog)

METAR text: RJOA 190500Z 10005KT 0500 R10/0200VP1800U -SHRA FG FEW000 BKN001 BKN002 08/07 Q1012
Conditions at: RJOA (NEW HIROSHIMA , JP) observed 0500 UTC 19 February 2019
Temperature: 8.0°C (46°F)
Dewpoint: 7.0°C (45°F) [RH = 93%]
Pressure (altimeter): 29.88 inches Hg (1012.0 mb)
Winds: from the E (100 degrees) at 6 MPH (5 knots; 2.6 m/s)
Visibility: 0.31 miles (0.50 km)
Ceiling: 100 feet AGL
Clouds: few clouds at 0 feet AGL
broken clouds at 100 feet AGL
broken clouds at 200 feet AGL
Weather: -SHRA FG  (light rain showers, fog)

METAR text: RJOA 190446Z 10008KT 050V170 1200 R10/0250VP1800D -SHRA BCFG BR FEW000 BKN001 BKN002 08/07 Q1012 RMK 1ST000 5ST001 6ST002 A2990 FG ALL QUAD
Conditions at: RJOA (NEW HIROSHIMA , JP) observed 0446 UTC 19 February 2019
Temperature: 8.0°C (46°F)
Dewpoint: 7.0°C (45°F) [RH = 93%]
Pressure (altimeter): 29.88 inches Hg (1012.0 mb)
Winds: from the E (100 degrees) at 9 MPH (8 knots; 4.1 m/s)
Visibility: 0.75 miles (1.21 km)
Ceiling: 100 feet AGL
Clouds: few clouds at 0 feet AGL
broken clouds at 100 feet AGL
broken clouds at 200 feet AGL
Weather: BCFG -SHRA BR  (patches of fog, light rain showers, mist)

METAR text: RJOA 190440Z 10006KT 0900 R10/0350VP1800U -SHRA FG FEW000 BKN001 BKN002 08/07 Q1012 RMK 1ST000 5ST001 6ST002 A2991
Conditions at: RJOA (NEW HIROSHIMA , JP) observed 0440 UTC 19 February 2019
Temperature: 8.0°C (46°F)
Dewpoint: 7.0°C (45°F) [RH = 93%]
Pressure (altimeter): 29.88 inches Hg (1012.0 mb)
Winds: from the E (100 degrees) at 7 MPH (6 knots; 3.1 m/s)
Visibility: 0.56 miles (0.90 km)
Ceiling: 100 feet AGL
Clouds: few clouds at 0 feet AGL
broken clouds at 100 feet AGL
broken clouds at 200 feet AGL
Weather: -SHRA FG  (light rain showers, fog)

METAR text: RJOA 190430Z 10004KT 070V130 0600 R10/0500V1200D -SHRA FG FEW000 BKN001 BKN002 08/07 Q1013 RMK 1ST000 5ST001 6ST002 A2992 P/FR
Conditions at: RJOA (NEW HIROSHIMA , JP) observed 0430 UTC 19 February 2019
Temperature: 8.0°C (46°F)
Dewpoint: 7.0°C (45°F) [RH = 93%]
Pressure (altimeter): 29.91 inches Hg (1013.0 mb)
Winds: from the E (100 degrees) at 5 MPH (4 knots; 2.1 m/s)
Visibility: 0.37 miles (0.60 km)
Ceiling: 100 feet AGL
Clouds: few clouds at 0 feet AGL
broken clouds at 100 feet AGL
broken clouds at 200 feet AGL
Weather: -SHRA FG  (light rain showers, fog)

METAR text: RJOA 190421Z 11005KT 080V150 0600 R10/0300VP1800D -SHRA FG FEW000 SCT001 BKN002 08/07 Q1012 RMK 1ST000 3ST001 6ST002 A2990 P/FR
Conditions at: RJOA (NEW HIROSHIMA , JP) observed 0421 UTC 19 February 2019
Temperature: 8.0°C (46°F)
Dewpoint: 7.0°C (45°F) [RH = 93%]
Pressure (altimeter): 29.88 inches Hg (1012.0 mb)
Winds: from the ESE (110 degrees) at 6 MPH (5 knots; 2.6 m/s)
Visibility: 0.37 miles (0.60 km)
Ceiling: 200 feet AGL
Clouds: few clouds at 0 feet AGL
scattered clouds at 100 feet AGL
broken clouds at 200 feet AGL
Weather: -SHRA FG  (light rain showers, fog)

METAR text: RJOA 190419Z 12005KT 080V150 0900 R10/0300VP1800D -SHRA FG FEW000 SCT001 BKN002 08/07 Q1012 RMK 1ST000 3ST001 6ST002 A2990 P/FR
Conditions at: RJOA (NEW HIROSHIMA , JP) observed 0419 UTC 19 February 2019
Temperature: 8.0°C (46°F)
Dewpoint: 7.0°C (45°F) [RH = 93%]
Pressure (altimeter): 29.88 inches Hg (1012.0 mb)
Winds: from the ESE (120 degrees) at 6 MPH (5 knots; 2.6 m/s)
Visibility: 0.56 miles (0.90 km)
Ceiling: 200 feet AGL
Clouds: few clouds at 0 feet AGL
scattered clouds at 100 feet AGL
broken clouds at 200 feet AGL
Weather: -SHRA FG  (light rain showers, fog)

METAR text: RJOA 190417Z 12004KT 080V240 1200 R10/0300VP1800D -SHRA BCFG BR FEW000 SCT001 BKN002 08/07 Q1012 RMK 1ST000 3ST001 6ST002 A2991 FG ALL QUAD P/FR
Conditions at: RJOA (NEW HIROSHIMA , JP) observed 0417 UTC 19 February 2019
Temperature: 8.0°C (46°F)
Dewpoint: 7.0°C (45°F) [RH = 93%]
Pressure (altimeter): 29.88 inches Hg (1012.0 mb)
Winds: from the ESE (120 degrees) at 5 MPH (4 knots; 2.1 m/s)
Visibility: 0.75 miles (1.21 km)
Ceiling: 200 feet AGL
Clouds: few clouds at 0 feet AGL
scattered clouds at 100 feet AGL
broken clouds at 200 feet AGL
Weather: BCFG -SHRA BR  (patches of fog, light rain showers, mist)

METAR text: RJOA 190412Z 14003KT 080V240 1300 R10/0800VP1800U -SHRA BCFG BR FEW000 SCT001 BKN002 08/07 Q1013 RMK 1ST000 3ST001 6ST002 A2993 FG ALL QUAD
Conditions at: RJOA (NEW HIROSHIMA , JP) observed 0412 UTC 19 February 2019
Temperature: 8.0°C (46°F)
Dewpoint: 7.0°C (45°F) [RH = 93%]
Pressure (altimeter): 29.91 inches Hg (1013.0 mb)
Winds: from the SE (140 degrees) at 3 MPH (3 knots; 1.5 m/s)
Visibility: 0.81 miles (1.30 km)
Ceiling: 200 feet AGL
Clouds: few clouds at 0 feet AGL
scattered clouds at 100 feet AGL
broken clouds at 200 feet AGL
Weather: BCFG -SHRA BR  (patches of fog, light rain showers, mist)

METAR text: RJOA 190405Z 10005KT 1600 R10/0800VP1800N -SHRA BCFG BR FEW000 SCT001 BKN002 08/07 Q1013 RMK 1ST000 3ST001 6ST002 A2994 FG ALL QUAD
Conditions at: RJOA (NEW HIROSHIMA , JP) observed 0405 UTC 19 February 2019
Temperature: 8.0°C (46°F)
Dewpoint: 7.0°C (45°F) [RH = 93%]
Pressure (altimeter): 29.91 inches Hg (1013.0 mb)
Winds: from the E (100 degrees) at 6 MPH (5 knots; 2.6 m/s)
Visibility: 0.99 miles (1.59 km)
Ceiling: 200 feet AGL
Clouds: few clouds at 0 feet AGL
scattered clouds at 100 feet AGL
broken clouds at 200 feet AGL
Weather: -SHRA BCFG BR  (light rain showers, patches of fog, mist)

METAR text: RJOA 190400Z 06004KT 1600 R10/0800VP1800D -SHRA BCFG BR FEW000 SCT001 BKN002 08/07 Q1014
Conditions at: RJOA (NEW HIROSHIMA , JP) observed 0400 UTC 19 February 2019
Temperature: 8.0°C (46°F)
Dewpoint: 7.0°C (45°F) [RH = 93%]
Pressure (altimeter): 29.94 inches Hg (1014.0 mb)
Winds: from the ENE (60 degrees) at 5 MPH (4 knots; 2.1 m/s)
Visibility: 0.99 miles (1.59 km)
Ceiling: 200 feet AGL
Clouds: few clouds at 0 feet AGL
scattered clouds at 100 feet AGL
broken clouds at 200 feet AGL
Weather: BCFG -SHRA BR  (patches of fog, light rain showers, mist)

METAR text: RJOA 190345Z VRB01KT 1600 -SHRA BCFG BR FEW000 SCT001 BKN002 07/06 Q1014 RMK 1ST000 4ST001 6ST002 A2996 FG ALL QUAD
Conditions at: RJOA (NEW HIROSHIMA , JP) observed 0345 UTC 19 February 2019
Temperature: 7.0°C (45°F)
Dewpoint: 6.0°C (43°F) [RH = 93%]
Pressure (altimeter): 29.94 inches Hg (1014.0 mb)
Winds: variable direction winds at 1 MPH (1 knots; 0.5 m/s)
Visibility: 0.99 miles (1.59 km)
Ceiling: 200 feet AGL
Clouds: few clouds at 0 feet AGL
scattered clouds at 100 feet AGL
broken clouds at 200 feet AGL
Weather: -SHRA BCFG BR  (light rain showers, patches of fog, mist)

METAR text: RJOA 190328Z 10003KT 0900 R10/1400VP1800U -SHRA FG FEW000 BKN001 BKN002 07/06 Q1014 RMK 1ST000 5ST001 6ST002 A2995
Conditions at: RJOA (NEW HIROSHIMA , JP) observed 0328 UTC 19 February 2019
Temperature: 7.0°C (45°F)
Dewpoint: 6.0°C (43°F) [RH = 93%]
Pressure (altimeter): 29.94 inches Hg (1014.0 mb)
Winds: from the E (100 degrees) at 3 MPH (3 knots; 1.5 m/s)
Visibility: 0.56 miles (0.90 km)
Ceiling: 100 feet AGL
Clouds: few clouds at 0 feet AGL
broken clouds at 100 feet AGL
broken clouds at 200 feet AGL
Weather: -SHRA FG  (light rain showers, fog)

METAR text: RJOA 190323Z VRB02KT 0900 R10/0700VP1800U -SHRA FG FEW000 BKN001 BKN002 07/06 Q1014 RMK 1ST000 5ST001 6ST002 A2995
Conditions at: RJOA (NEW HIROSHIMA , JP) observed 0323 UTC 19 February 2019
Temperature: 7.0°C (45°F)
Dewpoint: 6.0°C (43°F) [RH = 93%]
Pressure (altimeter): 29.94 inches Hg (1014.0 mb)
Winds: variable direction winds at 2 MPH (2 knots; 1.0 m/s)
Visibility: 0.56 miles (0.90 km)
Ceiling: 100 feet AGL
Clouds: few clouds at 0 feet AGL
broken clouds at 100 feet AGL
broken clouds at 200 feet AGL
Weather: -SHRA FG  (light rain showers, fog)

METAR text: RJOA 190318Z VRB01KT 0700 R10/0650VP1800U SHRA FG FEW000 BKN001 BKN002 07/06 Q1014 RMK 1ST000 5ST001 6ST002 A2996
Conditions at: RJOA (NEW HIROSHIMA , JP) observed 0318 UTC 19 February 2019
Temperature: 7.0°C (45°F)
Dewpoint: 6.0°C (43°F) [RH = 93%]
Pressure (altimeter): 29.94 inches Hg (1014.0 mb)
Winds: variable direction winds at 1 MPH (1 knots; 0.5 m/s)
Visibility: 0.43 miles (0.69 km)
Ceiling: 100 feet AGL
Clouds: few clouds at 0 feet AGL
broken clouds at 100 feet AGL
broken clouds at 200 feet AGL
Weather: SHRA FG  (rain showers, fog)

METAR text: RJOA 190309Z VRB02KT 0600 R10/0450VP1800D -SHRA FG FEW000 BKN001 BKN002 07/06 Q1014 RMK 1ST000 5ST001 6ST002 A2997
Conditions at: RJOA (NEW HIROSHIMA , JP) observed 0309 UTC 19 February 2019
Temperature: 7.0°C (45°F)
Dewpoint: 6.0°C (43°F) [RH = 93%]
Pressure (altimeter): 29.94 inches Hg (1014.0 mb)
Winds: variable direction winds at 2 MPH (2 knots; 1.0 m/s)
Visibility: 0.37 miles (0.60 km)
Ceiling: 100 feet AGL
Clouds: few clouds at 0 feet AGL
broken clouds at 100 feet AGL
broken clouds at 200 feet AGL
Weather: -SHRA FG  (light rain showers, fog)

METAR text: RJOA 190308Z 12003KT 020V160 0500 R10/0450VP1800D SHRA FG FEW000 BKN001 BKN002 07/06 Q1014 RMK 1ST000 5ST001 6ST002 A2996
Conditions at: RJOA (NEW HIROSHIMA , JP) observed 0308 UTC 19 February 2019
Temperature: 7.0°C (45°F)
Dewpoint: 6.0°C (43°F) [RH = 93%]
Pressure (altimeter): 29.94 inches Hg (1014.0 mb)
Winds: from the ESE (120 degrees) at 3 MPH (3 knots; 1.5 m/s)
Visibility: 0.31 miles (0.50 km)
Ceiling: 100 feet AGL
Clouds: few clouds at 0 feet AGL
broken clouds at 100 feet AGL
broken clouds at 200 feet AGL
Weather: SHRA FG  (rain showers, fog)

METAR text: RJOA 190305Z 12004KT 090V150 0500 R10/0600VP1800D -SHRA FG FEW000 BKN001 BKN002 07/06 Q1014 RMK 1ST000 5ST001 6ST002 A2997
Conditions at: RJOA (NEW HIROSHIMA , JP) observed 0305 UTC 19 February 2019
Temperature: 7.0°C (45°F)
Dewpoint: 6.0°C (43°F) [RH = 93%]
Pressure (altimeter): 29.94 inches Hg (1014.0 mb)
Winds: from the ESE (120 degrees) at 5 MPH (4 knots; 2.1 m/s)
Visibility: 0.31 miles (0.50 km)
Ceiling: 100 feet AGL
Clouds: few clouds at 0 feet AGL
broken clouds at 100 feet AGL
broken clouds at 200 feet AGL
Weather: -SHRA FG  (light rain showers, fog)

METAR text: RJOA 190302Z 12004KT 080V150 0500 R10/0800VP1800N -SHRA FG FEW000 BKN001 BKN002 07/06 Q1015 RMK 1ST000 5ST001 6ST002 A2997
Conditions at: RJOA (NEW HIROSHIMA , JP) observed 0302 UTC 19 February 2019
Temperature: 7.0°C (45°F)
Dewpoint: 6.0°C (43°F) [RH = 93%]
Pressure (altimeter): 29.97 inches Hg (1015.0 mb)
Winds: from the ESE (120 degrees) at 5 MPH (4 knots; 2.1 m/s)
Visibility: 0.31 miles (0.50 km)
Ceiling: 100 feet AGL
Clouds: few clouds at 0 feet AGL
broken clouds at 100 feet AGL
broken clouds at 200 feet AGL
Weather: -SHRA FG  (light rain showers, fog)

METAR text: RJOA 190300Z 12004KT 080V140 0500 R10/1300VP1800D -SHRA FG FEW000 BKN001 BKN002 07/06 Q1015
Conditions at: RJOA (NEW HIROSHIMA , JP) observed 0300 UTC 19 February 2019
Temperature: 7.0°C (45°F)
Dewpoint: 6.0°C (43°F) [RH = 93%]
Pressure (altimeter): 29.97 inches Hg (1015.0 mb)
Winds: from the ESE (120 degrees) at 5 MPH (4 knots; 2.1 m/s)
Visibility: 0.31 miles (0.50 km)
Ceiling: 100 feet AGL
Clouds: few clouds at 0 feet AGL
broken clouds at 100 feet AGL
broken clouds at 200 feet AGL
Weather: -SHRA FG  (light rain showers, fog)

METAR text: RJOA 190248Z 10008KT 0800 R10/P1800N -SHRA FG FEW000 BKN001 BKN002 07/06 Q1014 RMK 1ST000 5ST001 6ST002 A2996 P/FR
Conditions at: RJOA (NEW HIROSHIMA , JP) observed 0248 UTC 19 February 2019
Temperature: 7.0°C (45°F)
Dewpoint: 6.0°C (43°F) [RH = 93%]
Pressure (altimeter): 29.94 inches Hg (1014.0 mb)
Winds: from the E (100 degrees) at 9 MPH (8 knots; 4.1 m/s)
Visibility: 0.50 miles (0.80 km)
Ceiling: 100 feet AGL
Clouds: few clouds at 0 feet AGL
broken clouds at 100 feet AGL
broken clouds at 200 feet AGL
Weather: -SHRA FG  (light rain showers, fog)

METAR text: RJOA 190238Z 09005KT 050V110 0900 R10/P1800N SHRA FG FEW000 BKN001 BKN002 07/06 Q1015 RMK 1ST000 5ST001 6ST002 A2997 P/FR
Conditions at: RJOA (NEW HIROSHIMA , JP) observed 0238 UTC 19 February 2019
Temperature: 7.0°C (45°F)
Dewpoint: 6.0°C (43°F) [RH = 93%]
Pressure (altimeter): 29.97 inches Hg (1015.0 mb)
Winds: from the E (90 degrees) at 6 MPH (5 knots; 2.6 m/s)
Visibility: 0.56 miles (0.90 km)
Ceiling: 100 feet AGL
Clouds: few clouds at 0 feet AGL
broken clouds at 100 feet AGL
broken clouds at 200 feet AGL
Weather: SHRA FG  (rain showers, fog)

METAR text: RJOA 190231Z 09003KT 050V130 0900 R10/0650VP1800U -SHRA FG FEW000 BKN001 BKN002 07/06 Q1015 RMK 1ST000 5ST001 6ST002 A2999
Conditions at: RJOA (NEW HIROSHIMA , JP) observed 0231 UTC 19 February 2019
Temperature: 7.0°C (45°F)
Dewpoint: 6.0°C (43°F) [RH = 93%]
Pressure (altimeter): 29.97 inches Hg (1015.0 mb)
Winds: from the E (90 degrees) at 3 MPH (3 knots; 1.5 m/s)
Visibility: 0.56 miles (0.90 km)
Ceiling: 100 feet AGL
Clouds: few clouds at 0 feet AGL
broken clouds at 100 feet AGL
broken clouds at 200 feet AGL
Weather: -SHRA FG  (light rain showers, fog)

METAR text: RJOA 190223Z 11004KT 080V140 0800 R10/0500VP1800D SHRA FG FEW000 BKN001 BKN002 06/06 Q1015 RMK 1ST000 5ST001 6ST002 A3000
Conditions at: RJOA (NEW HIROSHIMA , JP) observed 0223 UTC 19 February 2019
Temperature: 6.0°C (43°F)
Dewpoint: 6.0°C (43°F) [RH = 100%]
Pressure (altimeter): 29.97 inches Hg (1015.0 mb)
Winds: from the ESE (110 degrees) at 5 MPH (4 knots; 2.1 m/s)
Visibility: 0.50 miles (0.80 km)
Ceiling: 100 feet AGL
Clouds: few clouds at 0 feet AGL
broken clouds at 100 feet AGL
broken clouds at 200 feet AGL
Weather: SHRA FG  (rain showers, fog)

METAR text: RJOA 190220Z 12004KT 060V140 0800 R10/0500VP1800D -RA FG FEW000 BKN001 BKN002 07/06 Q1016 RMK 1ST000 5ST001 6ST002 A3000
Conditions at: RJOA (NEW HIROSHIMA , JP) observed 0220 UTC 19 February 2019
Temperature: 7.0°C (45°F)
Dewpoint: 6.0°C (43°F) [RH = 93%]
Pressure (altimeter): 30.00 inches Hg (1016.0 mb)
Winds: from the ESE (120 degrees) at 5 MPH (4 knots; 2.1 m/s)
Visibility: 0.50 miles (0.80 km)
Ceiling: 100 feet AGL
Clouds: few clouds at 0 feet AGL
broken clouds at 100 feet AGL
broken clouds at 200 feet AGL
Weather: -RA FG  (light rain, fog)

METAR text: RJOA 190200Z 09006KT 0800 R10/P1800N -RA FG FEW000 BKN001 BKN002 06/05 Q1016
Conditions at: RJOA (NEW HIROSHIMA , JP) observed 0200 UTC 19 February 2019
Temperature: 6.0°C (43°F)
Dewpoint: 5.0°C (41°F) [RH = 93%]
Pressure (altimeter): 30.00 inches Hg (1016.0 mb)
Winds: from the E (90 degrees) at 7 MPH (6 knots; 3.1 m/s)
Visibility: 0.50 miles (0.80 km)
Ceiling: 100 feet AGL
Clouds: few clouds at 0 feet AGL
broken clouds at 100 feet AGL
broken clouds at 200 feet AGL
Weather: -RA FG  (light rain, fog)

METAR text: RJOA 190149Z 09007KT 060V120 0900 R10/1200VP1800U -RA FG FEW000 BKN001 BKN002 06/05 Q1016 RMK 1ST000 5ST001 6ST002 A3001
Conditions at: RJOA (NEW HIROSHIMA , JP) observed 0149 UTC 19 February 2019
Temperature: 6.0°C (43°F)
Dewpoint: 5.0°C (41°F) [RH = 93%]
Pressure (altimeter): 30.00 inches Hg (1016.0 mb)
Winds: from the E (90 degrees) at 8 MPH (7 knots; 3.6 m/s)
Visibility: 0.56 miles (0.90 km)
Ceiling: 100 feet AGL
Clouds: few clouds at 0 feet AGL
broken clouds at 100 feet AGL
broken clouds at 200 feet AGL
Weather: -RA FG  (light rain, fog)

METAR text: RJOA 190140Z 11005KT 070V150 0500 R10/1100VP1800D -RA FG FEW000 BKN001 BKN003 06/05 Q1016 RMK 1ST000 5ST001 6ST003 A3003
Conditions at: RJOA (NEW HIROSHIMA , JP) observed 0140 UTC 19 February 2019
Temperature: 6.0°C (43°F)
Dewpoint: 5.0°C (41°F) [RH = 93%]
Pressure (altimeter): 30.00 inches Hg (1016.0 mb)
Winds: from the ESE (110 degrees) at 6 MPH (5 knots; 2.6 m/s)
Visibility: 0.31 miles (0.50 km)
Ceiling: 100 feet AGL
Clouds: few clouds at 0 feet AGL
broken clouds at 100 feet AGL
broken clouds at 300 feet AGL
Weather: -RA FG  (light rain, fog)

METAR text: RJOA 190137Z 11006KT 070V150 0500 R10/1200VP1800D -RA FG FEW000 BKN001 BKN003 06/05 Q1016 RMK 1ST000 5ST001 6ST003 A3003
Conditions at: RJOA (NEW HIROSHIMA , JP) observed 0137 UTC 19 February 2019
Temperature: 6.0°C (43°F)
Dewpoint: 5.0°C (41°F) [RH = 93%]
Pressure (altimeter): 30.00 inches Hg (1016.0 mb)
Winds: from the ESE (110 degrees) at 7 MPH (6 knots; 3.1 m/s)
Visibility: 0.31 miles (0.50 km)
Ceiling: 100 feet AGL
Clouds: few clouds at 0 feet AGL
broken clouds at 100 feet AGL
broken clouds at 300 feet AGL
Weather: -RA FG  (light rain, fog)

METAR text: RJOA 190127Z 10010KT 0700 R10/P1800N -RA FG FEW000 BKN001 BKN003 06/05 Q1016 RMK 1ST000 5ST001 6ST003 A3002
Conditions at: RJOA (NEW HIROSHIMA , JP) observed 0127 UTC 19 February 2019
Temperature: 6.0°C (43°F)
Dewpoint: 5.0°C (41°F) [RH = 93%]
Pressure (altimeter): 30.00 inches Hg (1016.0 mb)
Winds: from the E (100 degrees) at 12 MPH (10 knots; 5.1 m/s)
Visibility: 0.43 miles (0.69 km)
Ceiling: 100 feet AGL
Clouds: few clouds at 0 feet AGL
broken clouds at 100 feet AGL
broken clouds at 300 feet AGL
Weather: -RA FG  (light rain, fog)

METAR text: RJOA 190116Z 09010KT 1400 R10/P1800N -RA BCFG BR FEW000 SCT002 BKN003 06/05 Q1016 RMK 1ST000 3ST002 5ST003 A3003 FG ALL QUAD P/FR
Conditions at: RJOA (NEW HIROSHIMA , JP) observed 0116 UTC 19 February 2019
Temperature: 6.0°C (43°F)
Dewpoint: 5.0°C (41°F) [RH = 93%]
Pressure (altimeter): 30.00 inches Hg (1016.0 mb)
Winds: from the E (90 degrees) at 12 MPH (10 knots; 5.1 m/s)
Visibility: 0.87 miles (1.40 km)
Ceiling: 300 feet AGL
Clouds: few clouds at 0 feet AGL
scattered clouds at 200 feet AGL
broken clouds at 300 feet AGL
Weather: -RA BCFG BR  (light rain, patches of fog, mist)

METAR text: RJOA 190100Z 08010KT 1800 -RA BCFG BR FEW000 SCT002 BKN003 06/05 Q1017
Conditions at: RJOA (NEW HIROSHIMA , JP) observed 0100 UTC 19 February 2019
Temperature: 6.0°C (43°F)
Dewpoint: 5.0°C (41°F) [RH = 93%]
Pressure (altimeter): 30.03 inches Hg (1017.0 mb)
Winds: from the E (80 degrees) at 12 MPH (10 knots; 5.1 m/s)
Visibility: 1.12 miles (1.80 km)
Ceiling: 300 feet AGL
Clouds: few clouds at 0 feet AGL
scattered clouds at 200 feet AGL
broken clouds at 300 feet AGL
Weather: -RA BCFG BR  (light rain, patches of fog, mist)

METAR text: RJOA 190038Z 07009KT 1800 -RA BCFG BR FEW000 SCT002 BKN003 06/04 Q1017 RMK 1ST000 3ST002 5ST003 A3005 FG ALL QUAD
Conditions at: RJOA (NEW HIROSHIMA , JP) observed 0038 UTC 19 February 2019
Temperature: 6.0°C (43°F)
Dewpoint: 4.0°C (39°F) [RH = 87%]
Pressure (altimeter): 30.03 inches Hg (1017.0 mb)
Winds: from the ENE (70 degrees) at 10 MPH (9 knots; 4.6 m/s)
Visibility: 1.12 miles (1.80 km)
Ceiling: 300 feet AGL
Clouds: few clouds at 0 feet AGL
scattered clouds at 200 feet AGL
broken clouds at 300 feet AGL
Weather: -RA BCFG BR  (light rain, patches of fog, mist)

METAR text: RJOA 190031Z 07010KT 1500 R10/P1800N RA BCFG BR FEW000 SCT002 BKN003 06/04 Q1018 RMK 1ST000 3ST002 5ST003 A3006 FG ALL QUAD
Conditions at: RJOA (NEW HIROSHIMA , JP) observed 0031 UTC 19 February 2019
Temperature: 6.0°C (43°F)
Dewpoint: 4.0°C (39°F) [RH = 87%]
Pressure (altimeter): 30.06 inches Hg (1018.0 mb)
Winds: from the ENE (70 degrees) at 12 MPH (10 knots; 5.1 m/s)
Visibility: 0.93 miles (1.50 km)
Ceiling: 300 feet AGL
Clouds: few clouds at 0 feet AGL
scattered clouds at 200 feet AGL
broken clouds at 300 feet AGL
Weather: RA BCFG BR  (moderate rain, patches of fog, mist)

METAR text: RJOA 190016Z 08011KT 1600 R10/P1800N -RA BCFG BR FEW000 SCT002 BKN003 05/04 Q1018 RMK 1ST000 3ST002 5ST003 A3007 FG ALL QUAD
Conditions at: RJOA (NEW HIROSHIMA , JP) observed 0016 UTC 19 February 2019
Temperature: 5.0°C (41°F)
Dewpoint: 4.0°C (39°F) [RH = 93%]
Pressure (altimeter): 30.06 inches Hg (1018.0 mb)
Winds: from the E (80 degrees) at 13 MPH (11 knots; 5.7 m/s)
Visibility: 0.99 miles (1.59 km)
Ceiling: 300 feet AGL
Clouds: few clouds at 0 feet AGL
scattered clouds at 200 feet AGL
broken clouds at 300 feet AGL
Weather: -RA BCFG BR  (light rain, patches of fog, mist)

METAR text: RJOA 190010Z 08011KT 1500 R10/P1800N RA BCFG BR FEW000 SCT002 BKN003 05/04 Q1018 RMK 1ST000 3ST002 5ST003 A3007 FG ALL QUAD P/FR
Conditions at: RJOA (NEW HIROSHIMA , JP) observed 0010 UTC 19 February 2019
Temperature: 5.0°C (41°F)
Dewpoint: 4.0°C (39°F) [RH = 93%]
Pressure (altimeter): 30.06 inches Hg (1018.0 mb)
Winds: from the E (80 degrees) at 13 MPH (11 knots; 5.7 m/s)
Visibility: 0.93 miles (1.50 km)
Ceiling: 300 feet AGL
Clouds: few clouds at 0 feet AGL
scattered clouds at 200 feet AGL
broken clouds at 300 feet AGL
Weather: RA BCFG BR  (moderate rain, patches of fog, mist)

METAR text: RJOA 190000Z 08010KT 2000 -RA BCFG BR FEW000 BKN003 BKN006 05/04 Q1019
Conditions at: RJOA (NEW HIROSHIMA , JP) observed 0000 UTC 19 February 2019
Temperature: 5.0°C (41°F)
Dewpoint: 4.0°C (39°F) [RH = 93%]
Pressure (altimeter): 30.09 inches Hg (1019.0 mb)
Winds: from the E (80 degrees) at 12 MPH (10 knots; 5.1 m/s)
Visibility: 1.24 miles (2.00 km)
Ceiling: 300 feet AGL
Clouds: few clouds at 0 feet AGL
broken clouds at 300 feet AGL
broken clouds at 600 feet AGL
Weather: -RA BCFG BR  (light rain, patches of fog, mist)

METAR text: RJOA 182347Z 07008KT 2200 -RA BCFG BR FEW000 SCT002 BKN003 05/04 Q1019 RMK 1ST000 3ST002 5ST003 A3010 FG ALL QUAD
Conditions at: RJOA (NEW HIROSHIMA , JP) observed 2347 UTC 18 February 2019
Temperature: 5.0°C (41°F)
Dewpoint: 4.0°C (39°F) [RH = 93%]
Pressure (altimeter): 30.09 inches Hg (1019.0 mb)
Winds: from the ENE (70 degrees) at 9 MPH (8 knots; 4.1 m/s)
Visibility: 1.37 miles (2.20 km)
Ceiling: 300 feet AGL
Clouds: few clouds at 0 feet AGL
scattered clouds at 200 feet AGL
broken clouds at 300 feet AGL
Weather: -RA BCFG BR  (light rain, patches of fog, mist)

METAR text: RJOA 182300Z 08011KT 2500 -RA BCFG BR FEW000 SCT003 BKN006 05/03 Q1019
Conditions at: RJOA (NEW HIROSHIMA , JP) observed 2300 UTC 18 February 2019
Temperature: 5.0°C (41°F)
Dewpoint: 3.0°C (37°F) [RH = 87%]
Pressure (altimeter): 30.09 inches Hg (1019.0 mb)
Winds: from the E (80 degrees) at 13 MPH (11 knots; 5.7 m/s)
Visibility: 1.55 miles (2.49 km)
Ceiling: 600 feet AGL
Clouds: few clouds at 0 feet AGL
scattered clouds at 300 feet AGL
broken clouds at 600 feet AGL
Weather: -RA BCFG BR  (light rain, patches of fog, mist)

METAR text: RJOA 182234Z 08010KT 2500 -RA BCFG BR FEW000 SCT004 BKN008 04/03 Q1020 RMK 1ST000 3ST004 5ST008 A3012 FG ALL QUAD
Conditions at: RJOA (NEW HIROSHIMA , JP) observed 2234 UTC 18 February 2019
Temperature: 4.0°C (39°F)
Dewpoint: 3.0°C (37°F) [RH = 93%]
Pressure (altimeter): 30.12 inches Hg (1020.0 mb)
Winds: from the E (80 degrees) at 12 MPH (10 knots; 5.1 m/s)
Visibility: 1.55 miles (2.49 km)
Ceiling: 800 feet AGL
Clouds: few clouds at 0 feet AGL
scattered clouds at 400 feet AGL
broken clouds at 800 feet AGL
Weather: -RA BCFG BR  (light rain, patches of fog, mist)

METAR text: RJOA 182224Z 08010KT 2000 -RA BCFG BR FEW000 SCT004 BKN008 04/03 Q1020 RMK 1ST000 3ST004 5ST008 A3012 FG ALL QUAD
Conditions at: RJOA (NEW HIROSHIMA , JP) observed 2224 UTC 18 February 2019
Temperature: 4.0°C (39°F)
Dewpoint: 3.0°C (37°F) [RH = 93%]
Pressure (altimeter): 30.12 inches Hg (1020.0 mb)
Winds: from the E (80 degrees) at 12 MPH (10 knots; 5.1 m/s)
Visibility: 1.24 miles (2.00 km)
Ceiling: 800 feet AGL
Clouds: few clouds at 0 feet AGL
scattered clouds at 400 feet AGL
broken clouds at 800 feet AGL
Weather: -RA BCFG BR  (light rain, patches of fog, mist)

METAR text: RJOA 182210Z 08009KT 2000 RA BCFG BR FEW000 SCT004 BKN020 04/03 Q1020 RMK 1ST000 3ST004 6CU020 A3013 FG ALL QUAD
Conditions at: RJOA (NEW HIROSHIMA , JP) observed 2210 UTC 18 February 2019
Temperature: 4.0°C (39°F)
Dewpoint: 3.0°C (37°F) [RH = 93%]
Pressure (altimeter): 30.12 inches Hg (1020.0 mb)
Winds: from the E (80 degrees) at 10 MPH (9 knots; 4.6 m/s)
Visibility: 1.24 miles (2.00 km)
Ceiling: 2000 feet AGL
Clouds: few clouds at 0 feet AGL
scattered clouds at 400 feet AGL
broken clouds at 2000 feet AGL
Weather: RA BCFG BR  (moderate rain, patches of fog, mist)

METAR text: RJOA 182200Z 07009KT 3000 -RA BCFG BR FEW000 SCT008 BKN020 04/03 Q1020
Conditions at: RJOA (NEW HIROSHIMA , JP) observed 2200 UTC 18 February 2019
Temperature: 4.0°C (39°F)
Dewpoint: 3.0°C (37°F) [RH = 93%]
Pressure (altimeter): 30.12 inches Hg (1020.0 mb)
Winds: from the ENE (70 degrees) at 10 MPH (9 knots; 4.6 m/s)
Visibility: 1.86 miles (2.99 km)
Ceiling: 2000 feet AGL
Clouds: few clouds at 0 feet AGL
scattered clouds at 800 feet AGL
broken clouds at 2000 feet AGL
Weather: -RA BCFG BR  (light rain, patches of fog, mist)

METAR text: RJOA 182110Z 07007KT 4500 -RA BR FEW002 BKN020 BKN035 04/02 Q1020 RMK 1ST002 5CU020 6SC035 A3014
Conditions at: RJOA (NEW HIROSHIMA , JP) observed 2110 UTC 18 February 2019
Temperature: 4.0°C (39°F)
Dewpoint: 2.0°C (36°F) [RH = 87%]
Pressure (altimeter): 30.12 inches Hg (1020.0 mb)
Winds: from the ENE (70 degrees) at 8 MPH (7 knots; 3.6 m/s)
Visibility: 2.80 miles (4.51 km)
Ceiling: 2000 feet AGL
Clouds: few clouds at 200 feet AGL
broken clouds at 2000 feet AGL
broken clouds at 3500 feet AGL
Weather: -RA BR  (light rain, mist)

METAR text: RJOA 181300Z 11004KT 9999 FEW030 BKN070 06/M05 Q1024
Conditions at: RJOA (NEW HIROSHIMA , JP) observed 1300 UTC 18 February 2019
Temperature: 6.0°C (43°F)
Dewpoint: -5.0°C (23°F) [RH = 45%]
Pressure (altimeter): 30.24 inches Hg (1024.0 mb)
Winds: from the ESE (110 degrees) at 5 MPH (4 knots; 2.1 m/s)
Visibility: 6 or more miles (10+ km)
Ceiling: 7000 feet AGL
Clouds: few clouds at 3000 feet AGL
broken clouds at 7000 feet AGL
Weather: no significant weather observed at this time

METAR text: RJOA 181200Z 11003KT 9999 SCT030 BKN080 06/M01 Q1025
Conditions at: RJOA (NEW HIROSHIMA , JP) observed 1200 UTC 18 February 2019
Temperature: 6.0°C (43°F)
Dewpoint: -1.0°C (30°F) [RH = 61%]
Pressure (altimeter): 30.27 inches Hg (1025.0 mb)
Winds: from the ESE (110 degrees) at 3 MPH (3 knots; 1.5 m/s)
Visibility: 6 or more miles (10+ km)
Ceiling: 8000 feet AGL
Clouds: scattered clouds at 3000 feet AGL
broken clouds at 8000 feet AGL
Weather: no significant weather observed at this time

METAR text: RJOA 181100Z 11004KT 9999 FEW030 BKN090 BKN120 07/M01 Q1024
Conditions at: RJOA (NEW HIROSHIMA , JP) observed 1100 UTC 18 February 2019
Temperature: 7.0°C (45°F)
Dewpoint: -1.0°C (30°F) [RH = 57%]
Pressure (altimeter): 30.24 inches Hg (1024.0 mb)
Winds: from the ESE (110 degrees) at 5 MPH (4 knots; 2.1 m/s)
Visibility: 6 or more miles (10+ km)
Ceiling: 9000 feet AGL
Clouds: few clouds at 3000 feet AGL
broken clouds at 9000 feet AGL
broken clouds at 12000 feet AGL
Weather: no significant weather observed at this time

METAR text: RJOA 181000Z VRB02KT 9999 FEW030 BKN090 07/M02 Q1024
Conditions at: RJOA (NEW HIROSHIMA , JP) observed 1000 UTC 18 February 2019
Temperature: 7.0°C (45°F)
Dewpoint: -2.0°C (28°F) [RH = 53%]
Pressure (altimeter): 30.24 inches Hg (1024.0 mb)
Winds: variable direction winds at 2 MPH (2 knots; 1.0 m/s)
Visibility: 6 or more miles (10+ km)
Ceiling: 9000 feet AGL
Clouds: few clouds at 3000 feet AGL
broken clouds at 9000 feet AGL
Weather: no significant weather observed at this time

METAR text: RJOA 180900Z 13004KT CAVOK 07/M03 Q1024
Conditions at: RJOA (NEW HIROSHIMA , JP) observed 0900 UTC 18 February 2019
Temperature: 7.0°C (45°F)
Dewpoint: -3.0°C (27°F) [RH = 49%]
Pressure (altimeter): 30.24 inches Hg (1024.0 mb)
Winds: from the SE (130 degrees) at 5 MPH (4 knots; 2.1 m/s)
Visibility: 6 or more miles (10+ km)
Ceiling: ceiling and visibility are OK
Clouds: unknown
Weather: no significant weather observed at this time

METAR text: RJOA 180800Z 14004KT 9999 FEW030 SCT110 BKN130 08/M04 Q1023
Conditions at: RJOA (NEW HIROSHIMA , JP) observed 0800 UTC 18 February 2019
Temperature: 8.0°C (46°F)
Dewpoint: -4.0°C (25°F) [RH = 42%]
Pressure (altimeter): 30.21 inches Hg (1023.0 mb)
Winds: from the SE (140 degrees) at 5 MPH (4 knots; 2.1 m/s)
Visibility: 6 or more miles (10+ km)
Ceiling: 13000 feet AGL
Clouds: few clouds at 3000 feet AGL
scattered clouds at 11000 feet AGL
broken clouds at 13000 feet AGL
Weather: no significant weather observed at this time

METAR text: RJOA 180700Z 14004KT 090V170 9999 FEW030 BKN130 BKN/// 09/M05 Q1023
Conditions at: RJOA (NEW HIROSHIMA , JP) observed 0700 UTC 18 February 2019
Temperature: 9.0°C (48°F)
Dewpoint: -5.0°C (23°F) [RH = 37%]
Pressure (altimeter): 30.21 inches Hg (1023.0 mb)
Winds: from the SE (140 degrees) at 5 MPH (4 knots; 2.1 m/s)
Visibility: 6 or more miles (10+ km)
Ceiling: 13000 feet AGL
Clouds: few clouds at 3000 feet AGL
broken clouds at 13000 feet AGL
Weather: no significant weather observed at this time

METAR text: RJOA 180600Z 12005KT 080V180 9999 FEW030 BKN/// 09/M05 Q1023
Conditions at: RJOA (NEW HIROSHIMA , JP) observed 0600 UTC 18 February 2019
Temperature: 9.0°C (48°F)
Dewpoint: -5.0°C (23°F) [RH = 37%]
Pressure (altimeter): 30.21 inches Hg (1023.0 mb)
Winds: from the ESE (120 degrees) at 6 MPH (5 knots; 2.6 m/s)
Visibility: 6 or more miles (10+ km)
Ceiling: at least 12,000 feet AGL
Clouds: few clouds at 3000 feet AGL
Weather: no significant weather observed at this time

METAR text: RJOA 180500Z 10005KT 070V140 9999 FEW030 BKN/// 09/M03 Q1024
Conditions at: RJOA (NEW HIROSHIMA , JP) observed 0500 UTC 18 February 2019
Temperature: 9.0°C (48°F)
Dewpoint: -3.0°C (27°F) [RH = 43%]
Pressure (altimeter): 30.24 inches Hg (1024.0 mb)
Winds: from the E (100 degrees) at 6 MPH (5 knots; 2.6 m/s)
Visibility: 6 or more miles (10+ km)
Ceiling: at least 12,000 feet AGL
Clouds: few clouds at 3000 feet AGL
Weather: no significant weather observed at this time

METAR text: RJOA 180400Z 16004KT 9999 FEW030 BKN/// 09/M04 Q1024
Conditions at: RJOA (NEW HIROSHIMA , JP) observed 0400 UTC 18 February 2019
Temperature: 9.0°C (48°F)
Dewpoint: -4.0°C (25°F) [RH = 40%]
Pressure (altimeter): 30.24 inches Hg (1024.0 mb)
Winds: from the SSE (160 degrees) at 5 MPH (4 knots; 2.1 m/s)
Visibility: 6 or more miles (10+ km)
Ceiling: at least 12,000 feet AGL
Clouds: few clouds at 3000 feet AGL
Weather: no significant weather observed at this time

METAR text: RJOA 180300Z 08003KT 9999 FEW030 BKN/// 08/M05 Q1025
Conditions at: RJOA (NEW HIROSHIMA , JP) observed 0300 UTC 18 February 2019
Temperature: 8.0°C (46°F)
Dewpoint: -5.0°C (23°F) [RH = 39%]
Pressure (altimeter): 30.27 inches Hg (1025.0 mb)
Winds: from the E (80 degrees) at 3 MPH (3 knots; 1.5 m/s)
Visibility: 6 or more miles (10+ km)
Ceiling: at least 12,000 feet AGL
Clouds: few clouds at 3000 feet AGL
Weather: no significant weather observed at this time

METAR text: RJOA 180200Z 10003KT 040V170 9999 FEW025 BKN/// 07/M03 Q1025
Conditions at: RJOA (NEW HIROSHIMA , JP) observed 0200 UTC 18 February 2019
Temperature: 7.0°C (45°F)
Dewpoint: -3.0°C (27°F) [RH = 49%]
Pressure (altimeter): 30.27 inches Hg (1025.0 mb)
Winds: from the E (100 degrees) at 3 MPH (3 knots; 1.5 m/s)
Visibility: 6 or more miles (10+ km)
Ceiling: at least 12,000 feet AGL
Clouds: few clouds at 2500 feet AGL
Weather: no significant weather observed at this time

METAR text: RJOA 180100Z 15004KT 080V200 9999 FEW025 BKN/// 05/M02 Q1025
Conditions at: RJOA (NEW HIROSHIMA , JP) observed 0100 UTC 18 February 2019
Temperature: 5.0°C (41°F)
Dewpoint: -2.0°C (28°F) [RH = 60%]
Pressure (altimeter): 30.27 inches Hg (1025.0 mb)
Winds: from the SSE (150 degrees) at 5 MPH (4 knots; 2.1 m/s)
Visibility: 6 or more miles (10+ km)
Ceiling: at least 12,000 feet AGL
Clouds: few clouds at 2500 feet AGL
Weather: no significant weather observed at this time

METAR text: RJOA 180000Z VRB01KT 9999 FEW025 BKN/// 05/M04 Q1025
Conditions at: RJOA (NEW HIROSHIMA , JP) observed 0000 UTC 18 February 2019
Temperature: 5.0°C (41°F)
Dewpoint: -4.0°C (25°F) [RH = 52%]
Pressure (altimeter): 30.27 inches Hg (1025.0 mb)
Winds: variable direction winds at 1 MPH (1 knots; 0.5 m/s)
Visibility: 6 or more miles (10+ km)
Ceiling: at least 12,000 feet AGL
Clouds: few clouds at 2500 feet AGL
Weather: no significant weather observed at this time

METAR text: RJOA 172300Z VRB01KT 9999 FEW020 SCT180 BKN/// 02/M04 Q1024
Conditions at: RJOA (NEW HIROSHIMA , JP) observed 2300 UTC 17 February 2019
Temperature: 2.0°C (36°F)
Dewpoint: -4.0°C (25°F) [RH = 64%]
Pressure (altimeter): 30.24 inches Hg (1024.0 mb)
Winds: variable direction winds at 1 MPH (1 knots; 0.5 m/s)
Visibility: 6 or more miles (10+ km)
Ceiling: at least 12,000 feet AGL
Clouds: few clouds at 2000 feet AGL
scattered clouds at 18000 feet AGL
Weather: no significant weather observed at this time

Forecast for: RJOA (NEW HIROSHIMA , JP)
Text: TAF RJOA 190507Z 1906/2012 12004KT 1500 -SHRA BR FEW000 SCT003 BKN005
Forecast period: 0600 UTC 19 February 2019 to 1200 UTC 20 February 2019
Forecast type: FROM: standard forecast or significant change
Winds: from the ESE (120 degrees) at 5 MPH (4 knots; 2.1 m/s)
Visibility: 0.93 miles (1.50 km)
Ceiling: 500 feet AGL
Clouds: few clouds at 0 feet AGL
scattered clouds at 300 feet AGL
broken clouds at 500 feet AGL
Weather: -SHRA BR  (light rain showers, mist)
Text: BECMG 1906/1908 27005KT
Forecast period: 0600 to 1000 UTC 19 February 2019
Forecast type: BECOMING: Conditions expected to become as follows by 0800 UTC 19 February 2019
Winds: from the W (270 degrees) at 6 MPH (5 knots; 2.6 m/s)
Visibility: 0.93 miles (1.50 km)
Ceiling: 500 feet AGL
Clouds: few clouds at 0 feet AGL
scattered clouds at 300 feet AGL
broken clouds at 500 feet AGL
Weather: -SHRA BR  (light rain showers, mist)
Text: TEMPO 1906/1910 0500 -SHRA FG VV001
Forecast period: 0600 to 1000 UTC 19 February 2019
Forecast type: TEMPORARY: The following changes expected for less than half the time period
Visibility: 0.31 miles (0.50 km)
Ceiling: indefinite ceiling with vertical visibility of 100 feet AGL
Clouds: obscured sky
Weather: -SHRA FG  (light rain showers, fog)
Text: BECMG 1910/1912 4000 BR FEW003 SCT005 BKN008
Forecast period: 1000 to 1500 UTC 19 February 2019
Forecast type: BECOMING: Conditions expected to become as follows by 1200 UTC 19 February 2019
Winds: from the W (270 degrees) at 6 MPH (5 knots; 2.6 m/s)
Visibility: 2.49 miles (4.01 km)
Ceiling: 800 feet AGL
Clouds: few clouds at 300 feet AGL
scattered clouds at 500 feet AGL
broken clouds at 800 feet AGL
Weather: BR  (mist)
Text: BECMG 1915/1917 8000 NSW FEW010 SCT015 BKN025
Forecast period: 1500 UTC 19 February 2019 to 1200 UTC 20 February 2019
Forecast type: BECOMING: Conditions expected to become as follows by 1700 UTC 19 February 2019
Winds: from the W (270 degrees) at 6 MPH (5 knots; 2.6 m/s)
Visibility: 5 miles (8 km)
Ceiling: 2500 feet AGL
Clouds: few clouds at 1000 feet AGL
scattered clouds at 1500 feet AGL
broken clouds at 2500 feet AGL
Weather: NSW  (no significant weather)